createdAt,value
2018-07-13T00:00:49.980Z,24.2
2018-07-13T00:01:39.989Z,24.2
2018-07-13T00:02:30.133Z,24.1
2018-07-13T00:03:20.945Z,24.2
2018-07-13T00:04:10.492Z,24.2
2018-07-13T00:05:00.539Z,24.2
2018-07-13T00:05:50.297Z,24.2
2018-07-13T00:06:40.116Z,24.2
2018-07-13T00:07:30.717Z,24.1
2018-07-13T00:08:20.770Z,24.2
2018-07-13T00:09:09.523Z,24.2
2018-07-13T00:10:00.588Z,24.1
2018-07-13T00:10:50.754Z,24.1
2018-07-13T00:11:41.049Z,24.1
2018-07-13T00:12:31.615Z,24.1
2018-07-13T00:13:21.456Z,24.2
2018-07-13T00:14:11.703Z,24.2
2018-07-13T00:15:01.325Z,24.1
2018-07-13T00:15:51.903Z,24.1
2018-07-13T00:16:40.607Z,24.1
2018-07-13T00:17:31.758Z,24.1
2018-07-13T00:18:21.558Z,24.1
2018-07-13T00:19:11.245Z,24.1
2018-07-13T00:20:01.886Z,24.1
2018-07-13T00:20:52.026Z,24.1
2018-07-13T00:21:41.976Z,24.1
2018-07-13T00:22:32.333Z,24.1
2018-07-13T00:23:22.151Z,24.1
2018-07-13T00:24:11.965Z,24.1
2018-07-13T00:25:02.065Z,24.1
2018-07-13T00:25:51.889Z,24.1
2018-07-13T00:26:42.454Z,24.1
2018-07-13T00:27:32.791Z,24.1
2018-07-13T00:28:22.067Z,24.1
2018-07-13T00:29:11.566Z,24.1
2018-07-13T00:30:02.699Z,24.1
2018-07-13T00:30:51.959Z,24.1
2018-07-13T00:31:42.094Z,24.1
2018-07-13T00:32:32.681Z,24.1
2018-07-13T00:33:22.711Z,24.1
2018-07-13T00:34:12.492Z,24.1
2018-07-13T00:35:02.815Z,24.1
2018-07-13T00:35:52.906Z,24.1
2018-07-13T00:36:43.233Z,24.1
2018-07-13T00:37:32.983Z,24.1
2018-07-13T00:38:23.151Z,24.1
2018-07-13T00:39:12.598Z,24.1
2018-07-13T00:40:03.244Z,24.1
2018-07-13T00:40:52.268Z,24.1
2018-07-13T00:41:43.070Z,24.1
2018-07-13T00:42:32.734Z,24.1
2018-07-13T00:43:23.653Z,24.1
2018-07-13T00:44:14.019Z,24.1
2018-07-13T00:45:03.609Z,24.1
2018-07-13T00:45:53.631Z,24.1
2018-07-13T00:46:43.750Z,24.1
2018-07-13T00:47:34.018Z,24.1
2018-07-13T00:48:23.885Z,24.1
2018-07-13T00:49:14.432Z,24.1
2018-07-13T00:50:04.503Z,24.1
2018-07-13T00:50:53.712Z,24.1
2018-07-13T00:51:44.054Z,24.1
2018-07-13T00:52:34.706Z,24.1
2018-07-13T00:53:24.269Z,24.1
2018-07-13T00:54:14.807Z,24.1
2018-07-13T00:55:03.886Z,24.1
2018-07-13T00:55:53.841Z,24.1
2018-07-13T00:56:44.199Z,24.1
2018-07-13T00:57:33.953Z,24.1
2018-07-13T00:58:24.060Z,24.1
2018-07-13T00:59:14.419Z,24.1
2018-07-13T01:00:04.744Z,24.1
2018-07-13T01:00:54.633Z,24.1
2018-07-13T01:01:45.097Z,24.1
2018-07-13T01:02:34.624Z,24.1
2018-07-13T01:03:24.999Z,24.1
2018-07-13T01:04:14.483Z,24.1
2018-07-13T01:05:04.251Z,24.1
2018-07-13T01:05:54.651Z,24.1
2018-07-13T01:06:45.261Z,24.1
2018-07-13T01:07:35.590Z,24
2018-07-13T01:08:24.813Z,24.1
2018-07-13T01:09:15.472Z,24.1
2018-07-13T01:10:05.292Z,24.1
2018-07-13T01:10:55.853Z,24.1
2018-07-13T01:11:45.456Z,24
2018-07-13T01:12:35.442Z,24.1
2018-07-13T01:13:25.199Z,24.1
2018-07-13T01:14:15.559Z,24.1
2018-07-13T01:15:05.901Z,24.1
2018-07-13T01:15:55.950Z,24.1
2018-07-13T01:16:46.292Z,24
2018-07-13T01:17:35.767Z,24
2018-07-13T01:18:25.813Z,24
2018-07-13T01:19:16.462Z,24.1
2018-07-13T01:20:06.523Z,24
2018-07-13T01:20:56.597Z,24
2018-07-13T01:21:44.811Z,24
2018-07-13T01:22:36.406Z,24
2018-07-13T01:23:26.745Z,24
2018-07-13T01:24:15.547Z,24
2018-07-13T01:25:07.200Z,24
2018-07-13T01:25:55.347Z,24
2018-07-13T01:26:46.868Z,24
2018-07-13T01:27:36.328Z,24
2018-07-13T01:28:26.380Z,24
2018-07-13T01:29:17.191Z,24
2018-07-13T01:30:07.277Z,24
2018-07-13T01:30:57.333Z,24
2018-07-13T01:31:46.578Z,24
2018-07-13T01:32:37.215Z,24
2018-07-13T01:33:27.185Z,24
2018-07-13T01:34:17.639Z,24
2018-07-13T01:35:07.194Z,24
2018-07-13T01:35:57.698Z,24
2018-07-13T01:36:46.995Z,24
2018-07-13T01:37:37.088Z,24
2018-07-13T01:38:28.138Z,24
2018-07-13T01:39:17.709Z,24
2018-07-13T01:40:07.995Z,24
2018-07-13T01:40:57.601Z,24
2018-07-13T01:41:48.484Z,24
2018-07-13T01:42:38.230Z,23.9
2018-07-13T01:43:28.088Z,23.9
2018-07-13T01:44:17.830Z,24
2018-07-13T01:45:07.693Z,24
2018-07-13T01:45:58.474Z,24
2018-07-13T01:46:48.515Z,23.9
2018-07-13T01:47:38.601Z,23.9
2018-07-13T01:48:28.387Z,23.9
2018-07-13T01:49:18.948Z,23.9
2018-07-13T01:50:09.030Z,23.9
2018-07-13T01:50:58.839Z,23.9
2018-07-13T01:51:48.631Z,23.9
2018-07-13T01:52:38.740Z,23.9
2018-07-13T01:53:29.068Z,23.9
2018-07-13T01:54:19.139Z,23.9
2018-07-13T01:55:08.982Z,23.9
2018-07-13T01:55:58.426Z,23.9
2018-07-13T01:56:49.599Z,23.9
2018-07-13T01:57:39.169Z,23.9
2018-07-13T01:58:27.798Z,23.9
2018-07-13T01:59:19.243Z,23.9
2018-07-13T02:00:08.736Z,23.9
2018-07-13T02:00:59.065Z,23.9
2018-07-13T02:01:49.433Z,23.9
2018-07-13T02:02:40.008Z,23.9
2018-07-13T02:03:29.901Z,23.9
2018-07-13T02:04:19.345Z,23.9
2018-07-13T02:05:09.766Z,23.9
2018-07-13T02:05:59.188Z,23.9
2018-07-13T02:06:49.304Z,23.9
2018-07-13T02:07:39.590Z,23.9
2018-07-13T02:08:30.330Z,23.9
2018-07-13T02:09:19.595Z,23.9
2018-07-13T02:10:09.521Z,23.9
2018-07-13T02:11:00.108Z,23.9
2018-07-13T02:11:49.931Z,23.9
2018-07-13T02:12:40.566Z,23.9
2018-07-13T02:13:29.519Z,23.9
2018-07-13T02:14:19.879Z,23.9
2018-07-13T02:15:09.334Z,23.9
2018-07-13T02:16:00.264Z,23.9
2018-07-13T02:16:49.473Z,23.9
2018-07-13T02:17:41.158Z,23.9
2018-07-13T02:18:30.115Z,23.9
2018-07-13T02:19:20.791Z,23.9
2018-07-13T02:20:10.557Z,23.9
2018-07-13T02:21:01.172Z,23.9
2018-07-13T02:21:50.440Z,23.9
2018-07-13T02:22:40.400Z,23.9
2018-07-13T02:23:30.834Z,23.9
2018-07-13T02:24:21.167Z,23.9
2018-07-13T02:25:11.723Z,23.9
2018-07-13T02:26:00.685Z,23.9
2018-07-13T02:26:51.555Z,23.9
2018-07-13T02:27:41.130Z,23.9
2018-07-13T02:28:31.459Z,23.9
2018-07-13T02:29:21.273Z,23.9
2018-07-13T02:30:11.647Z,23.9
2018-07-13T02:31:02.299Z,23.9
2018-07-13T02:31:52.275Z,23.9
2018-07-13T02:32:42.376Z,23.9
2018-07-13T02:33:31.332Z,23.9
2018-07-13T02:34:21.986Z,23.9
2018-07-13T02:35:12.002Z,23.9
2018-07-13T02:36:02.098Z,23.8
2018-07-13T02:36:51.171Z,23.9
2018-07-13T02:37:42.960Z,23.8
2018-07-13T02:38:31.697Z,23.9
2018-07-13T02:39:22.652Z,23.8
2018-07-13T02:40:12.159Z,23.9
2018-07-13T02:41:02.500Z,23.9
2018-07-13T02:41:52.062Z,23.9
2018-07-13T02:42:42.207Z,23.8
2018-07-13T02:43:32.380Z,23.8
2018-07-13T02:44:22.214Z,23.8
2018-07-13T02:45:12.638Z,23.8
2018-07-13T02:46:01.772Z,23.9
2018-07-13T02:46:52.660Z,23.9
2018-07-13T02:47:42.331Z,23.8
2018-07-13T02:48:33.257Z,23.9
2018-07-13T02:49:21.093Z,23.8
2018-07-13T02:50:12.689Z,23.8
2018-07-13T02:51:02.138Z,23.9
2018-07-13T02:51:52.714Z,23.8
2018-07-13T02:52:43.063Z,23.8
2018-07-13T02:53:32.608Z,23.8
2018-07-13T02:54:23.201Z,23.8
2018-07-13T02:55:14.073Z,23.8
2018-07-13T02:56:04.171Z,23.8
2018-07-13T02:56:53.324Z,23.8
2018-07-13T02:57:43.127Z,23.8
2018-07-13T02:58:34.025Z,23.8
2018-07-13T02:59:23.847Z,23.8
2018-07-13T03:00:13.900Z,23.8
2018-07-13T03:01:03.986Z,23.8
2018-07-13T03:01:53.960Z,23.8
2018-07-13T03:02:44.319Z,23.8
2018-07-13T03:03:34.440Z,23.8
2018-07-13T03:04:24.175Z,23.8
2018-07-13T03:05:13.450Z,23.8
2018-07-13T03:06:05.003Z,23.8
2018-07-13T03:06:53.323Z,23.8
2018-07-13T03:07:43.933Z,23.8
2018-07-13T03:08:33.437Z,23.8
2018-07-13T03:09:25.202Z,23.8
2018-07-13T03:10:14.703Z,23.8
2018-07-13T03:11:04.483Z,23.8
2018-07-13T03:11:54.779Z,23.8
2018-07-13T03:12:45.133Z,23.8
2018-07-13T03:13:34.374Z,23.8
2018-07-13T03:14:24.802Z,23.8
2018-07-13T03:15:15.170Z,23.8
2018-07-13T03:16:04.150Z,23.8
2018-07-13T03:16:54.050Z,23.8
2018-07-13T03:17:44.731Z,23.8
2018-07-13T03:18:34.203Z,23.8
2018-07-13T03:19:25.981Z,23.8
2018-07-13T03:20:14.884Z,23.8
2018-07-13T03:21:04.693Z,23.8
2018-07-13T03:21:54.995Z,23.8
2018-07-13T03:22:44.815Z,23.8
2018-07-13T03:23:34.861Z,23.8
2018-07-13T03:24:25.265Z,23.8
2018-07-13T03:25:30.433Z,23.8
2018-07-13T03:26:06.177Z,23.8
2018-07-13T03:26:56.261Z,23.8
2018-07-13T03:27:45.987Z,23.8
2018-07-13T03:28:35.758Z,23.8
2018-07-13T03:29:26.089Z,23.8
2018-07-13T03:30:16.241Z,23.8
2018-07-13T03:31:06.538Z,23.8
2018-07-13T03:31:55.784Z,23.8
2018-07-13T03:32:46.056Z,23.8
2018-07-13T03:33:36.117Z,23.8
2018-07-13T03:34:26.044Z,23.8
2018-07-13T03:35:17.144Z,23.8
2018-07-13T03:36:06.406Z,23.8
2018-07-13T03:36:56.945Z,23.8
2018-07-13T03:37:45.869Z,23.8
2018-07-13T03:38:37.147Z,23.8
2018-07-13T19:59:41.029Z,24.9
2018-07-13T20:00:32.285Z,24.9
2018-07-13T20:01:22.281Z,24.9
2018-07-13T20:02:12.787Z,24.9
2018-07-13T20:03:03.862Z,24.9
2018-07-13T20:03:52.214Z,24.9
2018-07-13T20:04:42.555Z,24.9
2018-07-13T20:05:32.014Z,24.9
2018-07-13T20:06:22.678Z,24.9
2018-07-13T20:07:12.439Z,24.9
2018-07-13T20:08:03.058Z,24.9
2018-07-13T20:08:52.917Z,24.9
2018-07-13T20:09:41.829Z,24.9
2018-07-13T20:10:32.208Z,24.9
2018-07-13T20:11:24.051Z,24.9
2018-07-13T20:12:12.345Z,24.9
2018-07-13T20:13:02.813Z,24.9
2018-07-13T20:13:52.767Z,24.9
2018-07-13T20:14:43.148Z,24.9
2018-07-13T20:15:32.414Z,24.9
2018-07-13T20:16:23.271Z,24.9
2018-07-13T20:17:14.996Z,24.8
2018-07-13T20:18:03.618Z,24.9
2018-07-13T20:18:53.116Z,24.9
2018-07-13T20:19:43.223Z,24.8
2018-07-13T20:20:33.263Z,24.9
2018-07-13T20:21:23.129Z,24.9
2018-07-13T20:22:12.566Z,24.9
2018-07-13T20:23:02.882Z,24.8
2018-07-13T20:23:54.077Z,24.8
2018-07-13T20:24:43.129Z,24.8
2018-07-13T20:25:34.244Z,24.8
2018-07-13T20:26:24.366Z,24.8
2018-07-13T20:27:13.209Z,24.8
2018-07-13T20:28:03.844Z,24.8
2018-07-13T20:28:53.614Z,24.8
2018-07-13T20:29:44.081Z,24.8
2018-07-13T20:30:33.830Z,24.8
2018-07-13T20:31:24.583Z,24.8
2018-07-13T20:32:13.947Z,24.8
2018-07-13T20:33:04.551Z,24.8
2018-07-13T20:33:54.383Z,24.8
2018-07-13T20:34:44.842Z,24.8
2018-07-13T20:35:34.890Z,24.8
2018-07-13T20:36:24.688Z,24.8
2018-07-13T20:37:15.152Z,24.8
2018-07-13T20:38:05.209Z,24.8
2018-07-13T20:38:55.415Z,24.8
2018-07-13T20:39:44.979Z,24.8
2018-07-13T20:40:35.557Z,24.8
2018-07-13T20:41:25.162Z,24.8
2018-07-13T20:42:15.216Z,24.8
2018-07-13T20:43:04.538Z,24.8
2018-07-13T20:43:54.813Z,24.8
2018-07-13T20:44:45.408Z,24.8
2018-07-13T20:45:35.738Z,24.8
2018-07-13T20:46:25.524Z,24.8
2018-07-13T20:47:15.859Z,24.8
2018-07-13T20:48:04.794Z,24.8
2018-07-13T20:48:55.746Z,24.8
2018-07-13T20:49:46.117Z,24.8
2018-07-13T20:50:35.877Z,24.8
2018-07-13T20:51:25.633Z,24.8
2018-07-13T20:52:14.969Z,24.8
2018-07-13T20:53:05.828Z,24.8
2018-07-13T20:53:55.332Z,24.8
2018-07-13T20:54:46.179Z,24.8
2018-07-13T20:55:36.283Z,24.8
2018-07-13T20:56:25.255Z,24.8
2018-07-13T20:57:15.599Z,24.8
2018-07-13T20:58:06.186Z,24.8
2018-07-13T20:58:56.009Z,24.8
2018-07-13T20:59:45.779Z,24.8
2018-07-13T21:00:36.744Z,24.8
2018-07-13T21:01:25.913Z,24.8
2018-07-13T21:02:17.064Z,24.8
2018-07-13T21:03:08.443Z,24.8
2018-07-13T21:03:56.617Z,24.8
2018-07-13T21:04:46.935Z,24.8
2018-07-13T21:05:36.244Z,24.8
2018-07-13T21:06:26.818Z,24.8
2018-07-13T21:07:17.307Z,24.8
2018-07-13T21:08:06.951Z,24.8
2018-07-13T21:08:57.450Z,24.8
2018-07-13T21:09:47.592Z,24.8
2018-07-13T21:10:37.650Z,24.8
2018-07-13T21:11:27.908Z,24.8
2018-07-13T21:12:17.187Z,24.8
2018-07-13T21:13:07.777Z,24.8
2018-07-13T21:13:57.829Z,24.8
2018-07-13T21:14:47.974Z,24.8
2018-07-13T21:15:36.694Z,24.7
2018-07-13T21:16:27.605Z,24.8
2018-07-13T21:17:17.397Z,24.7
2018-07-13T21:18:07.768Z,24.7
2018-07-13T21:18:57.744Z,24.7
2018-07-13T21:19:48.090Z,24.7
2018-07-13T21:20:38.423Z,24.7
2018-07-13T21:21:28.588Z,24.7
2018-07-13T21:22:18.668Z,24.7
2018-07-13T21:23:08.133Z,24.7
2018-07-13T21:23:58.663Z,24.7
2018-07-13T21:24:48.063Z,24.7
2018-07-13T21:25:38.551Z,24.7
2018-07-13T21:26:28.420Z,24.7
2018-07-13T21:27:19.477Z,24.7
2018-07-13T21:28:08.592Z,24.7
2018-07-13T21:28:58.859Z,24.7
2018-07-13T21:29:48.708Z,24.6
2018-07-13T21:30:39.573Z,24.6
2018-07-13T21:31:28.995Z,24.6
2018-07-13T21:32:19.093Z,24.6
2018-07-13T21:33:09.709Z,24.6
2018-07-13T21:33:58.362Z,24.6
2018-07-13T21:34:48.421Z,24.7
2018-07-13T21:35:38.911Z,24.6
2018-07-13T21:36:28.660Z,24.7
2018-07-13T21:37:19.414Z,24.6
2018-07-13T21:38:08.377Z,24.6
2018-07-13T21:39:00.044Z,24.6
2018-07-13T21:39:49.329Z,24.6
2018-07-13T21:40:38.711Z,24.6
2018-07-13T21:41:29.519Z,24.6
2018-07-13T21:42:19.804Z,24.6
2018-07-13T21:43:09.417Z,24.6
2018-07-13T21:43:59.411Z,24.6
2018-07-13T21:44:49.754Z,24.6
2018-07-13T21:45:40.092Z,24.6
2018-07-13T21:46:29.550Z,24.6
2018-07-13T21:47:20.672Z,24.6
2018-07-13T21:48:09.529Z,24.6
2018-07-13T21:49:00.075Z,24.6
2018-07-13T21:49:49.588Z,24.6
2018-07-13T21:50:40.997Z,24.6
2018-07-13T21:51:29.756Z,24.6
2018-07-13T21:52:22.570Z,24.6
2018-07-13T21:53:10.307Z,24.6
2018-07-13T21:54:00.957Z,24.6
2018-07-13T21:54:50.203Z,24.6
2018-07-13T21:55:41.109Z,24.6
2018-07-13T21:56:31.387Z,24.6
2018-07-13T21:57:20.924Z,24.6
2018-07-13T21:58:11.625Z,24.6
2018-07-13T21:59:01.706Z,24.6
2018-07-13T21:59:51.747Z,24.6
2018-07-13T22:00:40.993Z,24.6
2018-07-13T22:01:29.911Z,24.6
2018-07-13T22:02:20.321Z,24.6
2018-07-13T22:03:11.868Z,24.6
2018-07-13T22:04:01.252Z,24.6
2018-07-13T22:04:51.630Z,24.6
2018-07-13T22:05:41.712Z,24.6
2018-07-13T22:06:32.043Z,24.6
2018-07-13T22:07:21.267Z,24.6
2018-07-13T22:08:10.707Z,24.6
2018-07-13T22:09:01.878Z,24.6
2018-07-13T22:09:51.820Z,24.6
2018-07-13T22:10:42.582Z,24.6
2018-07-13T22:11:31.782Z,24.6
2018-07-13T22:12:22.253Z,24.6
2018-07-13T22:13:12.584Z,24.6
2018-07-13T22:14:01.146Z,24.6
2018-07-13T22:14:51.599Z,24.6
2018-07-13T22:15:42.138Z,24.6
2018-07-13T22:16:32.456Z,24.6
2018-07-13T22:17:22.808Z,24.6
2018-07-13T22:18:12.830Z,24.6
2018-07-13T22:19:02.183Z,24.6
2018-07-13T22:19:52.423Z,24.6
2018-07-13T22:20:42.459Z,24.6
2018-07-13T22:21:32.780Z,24.6
2018-07-13T22:22:23.098Z,24.6
2018-07-13T22:23:12.351Z,24.6
2018-07-13T22:24:05.285Z,24.6
2018-07-13T22:24:52.889Z,24.6
2018-07-13T22:25:43.852Z,24.6
2018-07-13T22:26:35.145Z,24.6
2018-07-13T22:27:22.976Z,24.6
2018-07-13T22:28:13.854Z,24.6
2018-07-13T22:29:03.119Z,24.6
2018-07-13T22:29:53.456Z,24.6
2018-07-13T22:30:43.493Z,24.6
2018-07-13T22:31:33.836Z,24.6
2018-07-13T22:32:23.919Z,24.6
2018-07-13T22:33:13.499Z,24.6
2018-07-13T22:34:03.498Z,24.6
2018-07-13T22:34:53.579Z,24.6
2018-07-13T22:35:43.367Z,24.6
2018-07-13T22:36:33.978Z,24.5
2018-07-13T22:37:23.565Z,24.5
2018-07-13T22:38:13.861Z,24.6
2018-07-13T22:39:04.458Z,24.5
2018-07-13T22:39:52.896Z,24.5
2018-07-13T22:40:43.781Z,24.5
2018-07-13T22:41:34.376Z,24.5
2018-07-13T22:42:23.917Z,24.5
2018-07-13T22:43:14.234Z,24.5
2018-07-13T22:44:03.755Z,24.5
2018-07-13T22:44:53.287Z,24.5
2018-07-13T22:45:44.993Z,24.5
2018-07-13T22:46:34.742Z,24.5
2018-07-13T22:47:24.000Z,24.5
2018-07-13T22:48:13.805Z,24.5
2018-07-13T22:49:05.332Z,24.5
2018-07-13T22:49:54.531Z,24.5
2018-07-13T22:50:44.174Z,24.5
2018-07-13T22:51:35.465Z,24.5
2018-07-13T22:52:25.205Z,24.4
2018-07-13T22:53:15.519Z,24.5
2018-07-13T22:54:05.094Z,24.4
2018-07-13T22:54:54.681Z,24.4
2018-07-13T22:55:45.488Z,24.4
2018-07-13T22:56:34.766Z,24.4
2018-07-13T22:57:25.399Z,24.4
2018-07-13T22:58:14.662Z,24.4
2018-07-13T22:59:05.484Z,24.4
2018-07-13T22:59:55.489Z,24.4
2018-07-13T23:00:45.926Z,24.4
2018-07-13T23:01:35.441Z,24.4
2018-07-13T23:02:25.496Z,24.4
2018-07-13T23:03:15.255Z,24.4
2018-07-13T23:04:06.414Z,24.4
2018-07-13T23:04:56.531Z,24.4
2018-07-13T23:05:46.475Z,24.4
2018-07-13T23:06:35.747Z,24.4
2018-07-13T23:07:26.445Z,24.4
2018-07-13T23:08:16.960Z,24.4
2018-07-13T23:09:05.751Z,24.4
2018-07-13T23:09:56.604Z,24.4
2018-07-13T23:10:45.795Z,24.4
2018-07-13T23:11:36.168Z,24.4
2018-07-13T23:12:27.100Z,24.5
2018-07-13T23:13:16.843Z,24.4
2018-07-13T23:14:07.473Z,24.4
2018-07-13T23:14:56.138Z,24.4
2018-07-13T23:15:47.116Z,24.4
2018-07-13T23:16:37.050Z,24.4
2018-07-13T23:17:26.595Z,24.4
2018-07-13T23:18:17.847Z,24.4
2018-07-13T23:19:06.792Z,24.4
2018-07-13T23:19:56.530Z,24.4
2018-07-13T23:20:46.571Z,24.4
2018-07-13T23:21:37.477Z,24.5
2018-07-13T23:22:28.217Z,24.4
2018-07-13T23:23:18.220Z,24.5
2018-07-13T23:24:08.627Z,24.4
2018-07-13T23:24:58.041Z,24.5
2018-07-13T23:25:47.591Z,24.5
2018-07-13T23:26:38.086Z,24.4
2018-07-13T23:27:27.599Z,24.5
2018-07-13T23:28:17.760Z,24.4
2018-07-13T23:29:07.458Z,24.5
2018-07-13T23:29:58.038Z,24.5
2018-07-13T23:30:47.834Z,24.4
2018-07-13T23:31:38.468Z,24.5
2018-07-13T23:32:28.025Z,24.5
2018-07-13T23:33:17.542Z,24.5
2018-07-13T23:34:08.505Z,24.5
2018-07-13T23:34:58.168Z,24.5
2018-07-13T23:35:47.534Z,24.5
2018-07-13T23:36:39.239Z,24.4
2018-07-13T23:37:28.555Z,24.5
2018-07-13T23:38:17.991Z,24.5
2018-07-13T23:39:08.095Z,24.5
2018-07-13T23:39:58.116Z,24.5
2018-07-13T23:40:48.439Z,24.5
2018-07-13T23:41:38.491Z,24.5
2018-07-13T23:42:28.557Z,24.5
2018-07-13T23:43:18.349Z,24.5
2018-07-13T23:44:08.902Z,24.5
2018-07-13T23:44:57.989Z,24.5
2018-07-13T23:45:48.759Z,24.5
2018-07-13T23:46:39.112Z,24.5
2018-07-13T23:47:29.223Z,24.5
2018-07-13T23:48:18.501Z,24.5
2018-07-13T23:49:08.508Z,24.5
2018-07-13T23:49:58.941Z,24.5
2018-07-13T23:50:48.671Z,24.5
2018-07-13T23:51:39.560Z,24.5
2018-07-13T23:52:29.088Z,24.5
2018-07-13T23:53:18.860Z,24.5
2018-07-13T23:54:08.962Z,24.5
2018-07-13T23:54:59.005Z,24.5
2018-07-13T23:55:49.530Z,24.5
2018-07-13T23:56:40.465Z,24.5
2018-07-13T23:57:30.260Z,24.5
2018-07-13T23:58:20.562Z,24.5
2018-07-13T23:59:10.892Z,24.5
2018-07-13T23:59:59.848Z,24.5
